CNU6 weather

Huntsville Seaplane Base
Ontario, Canada

Public forecast

Using degrees Celsius for public forecast. Weather courtesy of forecast.io.

Closest aviation weather report (METAR) to Huntsville Seaplane Base

Closest report is Muskoka Airport, 20.7 nm (38.3 km) S. Retrieved 2020/06/07 09:00 UTC (38 minutes ago):

CYQA 070900Z AUTO VRB02KT 9SM CLR 05/04 A3008 RMK SLP190

Closest aviation forecast (TAF) to Huntsville Seaplane Base

Forecast is more than 12 hours old.

Closest forecast is Muskoka Airport, 20.7 nm (38.3 km) S. Retrieved 2020/06/06 20:00 UTC (14 hours ago):

TAF CYQA 061938Z 0620/0702 30010KT P6SM SCT050 TEMPO 0620/0624 P6SM -SHRA BKN050 PROB30 0620/0622 3SM TSRA BR BKN020 OVC060CB FM070000 33008KT P6SM FEW050 RMK FCST BASED ON AUTO OBS NXT FCST WILL BE ISSUED AT 071145Z